Keeneyville, Illinois
Current Conditions -  °F | °C
As of 8:52 AM on Saturday 25 Oct 2014 (Local Time) from KDPA Reporting Station
Haze Haze  
Wind Chill: 58°   Ceiling: Unl
Heat Index: 58°   Visibility: 3mi
Dew Point: 54°   Wind: 6mph
Humidity: 87%   Direction: 270°W
Pressure: 29.94"   Gusts: NA
Location:  41.9791°N, 88.0934°W
Report Text: KDPA 251352Z 27005KT 3SM BR CLR 14/12 A2994 RMK AO2 SLP138 T01440122
Loading
Personal Weather Stations






























Interactive Weather Map
Tropical Storm Tracking
New forecast layout! Learn more

10-Day Weather Forecast

Advertisements
Track Severe Weather on mobile